Lake Hubert, Minnesota
Current Conditions -  °F | °C
As of 11:53 AM on Saturday 25 Oct 2014 (Local Time) from KBRD Reporting Station
Clear Clear  
Wind Chill: 54°   Ceiling: Unl
Heat Index: 54°   Visibility: 10mi
Dew Point: 29°   Wind: 18mph
Humidity: 38%   Direction: 300°WNW
Pressure: 30.03"   Gusts: 25mph
Location:  46.5°N, 94.26°W
Report Text: KBRD 251653Z AUTO 30016G22KT 10SM CLR 12/M02 A3003 RMK AO2 SLP174 T01221017
Loading
Personal Weather Stations






























Interactive Weather Map
Tropical Storm Tracking
New forecast layout! Learn more

10-Day Weather Forecast

Advertisements
Track Severe Weather on mobile